Camp Pendleton MCAS (Munn Field) Airport Oceanside US
ICAO: KNFG
IATA: NFG
Category: Medium
Scheduled Services: No

Elevation: 78 ft
TransAlt. 18000 ft.

Airport Communications:
SOCAL APP/DEP:127.3
APP/DEP:128.45
ATIS:26.76
CLNC DEL:126.2
GND:128.775
MCB RANGE CON:123.2
BASE OPS:26.5
PMSV METRO:34.24
TWR:128.775

KNFG Zoom In..

Runways:

(A) RW 03 length 6005 ft width 200 ft
---- / hdg 31

(B) RW 21 length 6005 ft width 200 ft
---- / hdg 211

Location; KNFG
Day. 17 / Time. 06.55 Zulu
* Altimeter: 29.97
* Temperature: 21° c. 69.8°f.
* Wind from: VRB° Speed 03 kn.
Dewpoint: 18° c.
Visibility: 10 Statute Miles.
Clouds: Broken 1500 ft.

KNFG 170655Z VRB03KT 10SM BKN015 21/18 A2997 RMK AO2 SLP149 T02110178


Wind From VRB°
Speed 03 kn.

 
 
jpsmedia.com for Web Design worldairports.se 2018   terms of use